Murphys Corner, Arkansas
Current Conditions -  °F | °C
As of 2:56 AM on Wednesday 22 Oct 2014 (Local Time) from KM19 Reporting Station
Clear Clear  
Wind Chill: 50°   Ceiling: Unl
Heat Index: 50°   Visibility: 10mi
Dew Point: 47°   Wind: 6mph
Humidity: 89%   Direction: 20°NNE
Pressure: 30.17"   Gusts: NA
Location:  35.5678°N, 91.2073°W
Report Text: KM19 220756Z AUTO 02005KT 10SM CLR 10/08 A3017 RMK AO2 T01000083 SLP214
Loading
Personal Weather Stations






























Interactive Weather Map
Tropical Storm Tracking
New forecast layout! Learn more

10-Day Weather Forecast

Advertisements
Track Severe Weather on mobile